Time;durP1;ratioP1;P1;durP2;ratioP2;P2;SDS_P1;SDS_P2;PMS_P1;PMS_P2;Temp;Humidity;BMP_temperature;BMP_pressure;BME280_temperature;BME280_humidity;BME280_pressure;Samples;Min_cycle;Max_cycle;Signal;HPM_P1;HPM_P2
2022/08/10 00:00:37;;;;;;;;;;;19.70;96.80;;;;;;5014487;28;19929;-74
2022/08/10 00:03:06;;;;;;;;;;;19.70;96.80;;;;;;5027552;28;19926;-74
2022/08/10 00:05:33;;;;;;;;;;;19.70;97.30;;;;;;5023416;28;19961;-75
2022/08/10 00:08:00;;;;;;;;;;;19.60;97.50;;;;;;5017707;28;19941;-74
2022/08/10 00:10:28;;;;;;;;;;;19.60;97.50;;;;;;5029846;28;19925;-73
2022/08/10 00:12:54;;;;;;;;;;;19.60;97.60;;;;;;5006913;28;19929;-74
2022/08/10 00:15:22;;;;;;;;;;;19.60;97.80;;;;;;5003004;28;20318;-74
2022/08/10 00:17:48;;;;;;;;;;;19.60;97.80;;;;;;5010053;28;19926;-74
2022/08/10 00:20:15;;;;;;;;;;;19.50;98.20;;;;;;5002297;28;20272;-74
2022/08/10 00:22:43;;;;;;;;;;;19.50;98.20;;;;;;5004089;28;19924;-74
2022/08/10 00:25:10;;;;;;;;;;;19.50;98.40;;;;;;5011076;28;19944;-75
2022/08/10 00:27:38;;;;;;;;;;;19.40;98.60;;;;;;5028143;28;19925;-75
2022/08/10 00:30:05;;;;;;;;;;;19.40;98.70;;;;;;5018409;28;19925;-74
2022/08/10 00:32:32;;;;;;;;;;;19.40;98.90;;;;;;5020240;28;19933;-73
2022/08/10 00:34:58;;;;;;;;;;;19.40;99.20;;;;;;5026557;28;20019;-75
2022/08/10 00:37:25;;;;;;;;;;;19.30;98.80;;;;;;5014570;28;19971;-74
2022/08/10 00:39:52;;;;;;;;;;;19.30;99.30;;;;;;5021389;28;20385;-75
2022/08/10 00:42:18;;;;;;;;;;;19.30;99.40;;;;;;5022820;28;19929;-74
2022/08/10 00:44:48;;;;;;;;;;;19.30;99.30;;;;;;5018011;28;20390;-75
2022/08/10 00:47:15;;;;;;;;;;;19.20;99.60;;;;;;5006780;28;19983;-74
2022/08/10 00:49:42;;;;;;;;;;;19.20;99.90;;;;;;5026018;28;19929;-74
2022/08/10 00:52:11;;;;;;;;;;;19.20;99.90;;;;;;5007989;28;19932;-73
2022/08/10 00:54:39;;;;;;;;;;;19.10;99.90;;;;;;5006534;28;19996;-74
2022/08/10 00:57:06;;;;;;;;;;;19.10;99.90;;;;;;5014532;28;20718;-75
2022/08/10 00:59:33;;;;;;;;;;;19.10;99.90;;;;;;5000454;28;20035;-74
2022/08/10 01:02:02;;;;;;;;;;;19.00;99.90;;;;;;5027292;28;20004;-74
2022/08/10 01:04:29;;;;;;;;;;;19.00;99.90;;;;;;5024783;28;20003;-74
2022/08/10 01:07:01;;;;;;;;;;;18.90;99.90;;;;;;5017408;28;19930;-74
2022/08/10 01:09:31;;;;;;;;;;;18.90;99.90;;;;;;5012027;28;19929;-74
2022/08/10 01:12:01;;;;;;;;;;;18.80;99.90;;;;;;5014907;28;19936;-74
2022/08/10 01:14:30;;;;;;;;;;;18.80;99.90;;;;;;5012351;28;20279;-75
2022/08/10 01:16:59;;;;;;;;;;;18.80;99.90;;;;;;4998414;28;20013;-75
2022/08/10 01:19:40;;;;;;;;;;;18.70;99.90;;;;;;5024138;28;19929;-75
2022/08/10 01:22:19;;;;;;;;;;;18.70;99.90;;;;;;5026157;28;19936;-75
2022/08/10 01:25:10;;;;;;;;;;;18.70;99.90;;;;;;5019044;28;19925;-74
2022/08/10 01:27:40;;;;;;;;;;;18.70;99.90;;;;;;5029101;28;19939;-74
2022/08/10 01:30:08;;;;;;;;;;;18.60;99.90;;;;;;5006967;28;20420;-74
2022/08/10 01:32:40;;;;;;;;;;;18.60;99.90;;;;;;5022093;28;19932;-74
2022/08/10 01:35:11;;;;;;;;;;;18.60;99.90;;;;;;5029085;28;19929;-74
2022/08/10 01:37:39;;;;;;;;;;;18.60;99.90;;;;;;5012074;28;19925;-74
2022/08/10 01:40:08;;;;;;;;;;;18.60;99.90;;;;;;4999549;28;19926;-74
2022/08/10 01:42:36;;;;;;;;;;;18.60;99.90;;;;;;5021602;28;19929;-74
2022/08/10 01:45:04;;;;;;;;;;;18.50;99.90;;;;;;5000163;28;19949;-74
2022/08/10 01:50:22;;;;;;;;;;;18.50;99.90;;;;;;5001030;28;20311;-74
2022/08/10 01:52:50;;;;;;;;;;;18.40;99.90;;;;;;5018803;28;19929;-74
2022/08/10 01:55:17;;;;;;;;;;;18.40;99.90;;;;;;5017678;28;19988;-74
2022/08/10 01:57:45;;;;;;;;;;;18.30;99.90;;;;;;5017389;28;19966;-74
2022/08/10 02:00:12;;;;;;;;;;;18.30;99.90;;;;;;5009258;28;19933;-74
2022/08/10 02:02:42;;;;;;;;;;;18.30;99.90;;;;;;5016840;28;20011;-73
2022/08/10 02:05:10;;;;;;;;;;;18.20;99.90;;;;;;5013857;28;19929;-73
2022/08/10 02:07:39;;;;;;;;;;;18.20;99.90;;;;;;5022089;28;19990;-73
2022/08/10 02:10:08;;;;;;;;;;;18.20;99.90;;;;;;5030182;28;19933;-73
2022/08/10 02:12:35;;;;;;;;;;;18.20;99.90;;;;;;5023834;28;19932;-73
2022/08/10 02:15:03;;;;;;;;;;;18.20;99.90;;;;;;5023592;28;20396;-73
2022/08/10 02:17:33;;;;;;;;;;;18.20;99.90;;;;;;5014745;28;20442;-74
2022/08/10 02:20:03;;;;;;;;;;;18.10;99.90;;;;;;5015997;28;19929;-73
2022/08/10 02:22:30;;;;;;;;;;;18.10;99.90;;;;;;5004144;28;19929;-73
2022/08/10 02:24:58;;;;;;;;;;;18.00;99.90;;;;;;5021151;28;19925;-73
2022/08/10 02:27:26;;;;;;;;;;;18.00;99.90;;;;;;5021407;28;19925;-73
2022/08/10 02:29:53;;;;;;;;;;;18.50;99.90;;;;;;5022323;28;19980;-73
2022/08/10 02:32:22;;;;;;;;;;;17.90;99.90;;;;;;5019665;28;19925;-73
2022/08/10 02:34:50;;;;;;;;;;;17.90;99.90;;;;;;5028380;28;20024;-73
2022/08/10 02:37:21;;;;;;;;;;;17.90;99.90;;;;;;5028404;28;20313;-73
2022/08/10 02:39:48;;;;;;;;;;;17.90;99.90;;;;;;5023396;28;19937;-73
2022/08/10 02:42:19;;;;;;;;;;;17.90;99.90;;;;;;5020855;28;19925;-73
2022/08/10 02:44:50;;;;;;;;;;;17.80;99.90;;;;;;5018336;28;19929;-73
2022/08/10 02:47:20;;;;;;;;;;;17.80;99.90;;;;;;5016646;28;19933;-73
2022/08/10 02:49:49;;;;;;;;;;;17.80;99.90;;;;;;5010904;28;20345;-73
2022/08/10 02:52:20;;;;;;;;;;;17.80;99.90;;;;;;5003812;28;19936;-73
2022/08/10 02:54:50;;;;;;;;;;;17.70;99.90;;;;;;5026853;28;19948;-73
2022/08/10 02:57:19;;;;;;;;;;;17.70;99.90;;;;;;5025966;28;20354;-74
2022/08/10 02:59:49;;;;;;;;;;;17.70;99.90;;;;;;5028232;28;19929;-73
2022/08/10 03:02:19;;;;;;;;;;;17.70;99.90;;;;;;5035503;28;19925;-73
2022/08/10 03:04:47;;;;;;;;;;;17.60;99.90;;;;;;5033101;28;19926;-73
2022/08/10 03:07:16;;;;;;;;;;;17.60;99.90;;;;;;5025400;28;20314;-73
2022/08/10 03:09:45;;;;;;;;;;;17.60;99.90;;;;;;5017359;28;20442;-73
2022/08/10 03:12:13;;;;;;;;;;;17.60;99.90;;;;;;5017482;28;20389;-73
2022/08/10 03:14:40;;;;;;;;;;;17.60;99.90;;;;;;5016410;28;19929;-73
2022/08/10 03:17:08;;;;;;;;;;;17.60;99.90;;;;;;5018305;28;19936;-73
2022/08/10 03:19:36;;;;;;;;;;;17.60;99.90;;;;;;5020644;28;19940;-73
2022/08/10 03:22:03;;;;;;;;;;;17.50;99.90;;;;;;5020217;28;20239;-73
2022/08/10 03:24:30;;;;;;;;;;;17.50;99.90;;;;;;5009967;28;19932;-73
2022/08/10 03:26:59;;;;;;;;;;;17.50;99.90;;;;;;4994612;28;19950;-73
2022/08/10 03:29:26;;;;;;;;;;;17.50;99.90;;;;;;5007087;28;20361;-73
2022/08/10 03:31:55;;;;;;;;;;;17.50;99.90;;;;;;5019227;28;19929;-73
2022/08/10 03:34:22;;;;;;;;;;;17.50;99.90;;;;;;5026534;28;19941;-73
2022/08/10 03:36:49;;;;;;;;;;;17.50;99.90;;;;;;5027119;28;19932;-72
2022/08/10 03:39:15;;;;;;;;;;;17.50;99.90;;;;;;5026949;28;19955;-73
2022/08/10 03:41:46;;;;;;;;;;;17.40;99.90;;;;;;4998460;28;19925;-73
2022/08/10 03:44:18;;;;;;;;;;;17.40;99.90;;;;;;5021454;28;19972;-73
2022/08/10 03:46:45;;;;;;;;;;;17.40;99.90;;;;;;5013209;28;19941;-73
2022/08/10 03:49:13;;;;;;;;;;;17.30;99.90;;;;;;5002044;28;20322;-73
2022/08/10 03:51:40;;;;;;;;;;;17.30;99.90;;;;;;5022507;28;20360;-73
2022/08/10 03:54:08;;;;;;;;;;;17.30;99.90;;;;;;5018963;28;20158;-73
2022/08/10 03:56:36;;;;;;;;;;;17.20;99.90;;;;;;5021615;28;20172;-73
2022/08/10 03:59:04;;;;;;;;;;;17.20;99.90;;;;;;5026186;28;19937;-73
2022/08/10 04:01:32;;;;;;;;;;;17.20;99.90;;;;;;5020614;28;20438;-73
2022/08/10 04:03:59;;;;;;;;;;;17.30;99.90;;;;;;5005237;28;20012;-73
2022/08/10 04:06:26;;;;;;;;;;;17.30;99.90;;;;;;5019192;28;19929;-73
2022/08/10 04:08:53;;;;;;;;;;;17.30;99.90;;;;;;5023405;28;20283;-73
2022/08/10 04:11:19;;;;;;;;;;;17.30;99.90;;;;;;5018684;28;19987;-73
2022/08/10 04:13:47;;;;;;;;;;;17.30;99.90;;;;;;5024626;28;19925;-74
2022/08/10 04:16:14;;;;;;;;;;;17.20;99.90;;;;;;5018539;28;19933;-75
2022/08/10 04:18:42;;;;;;;;;;;17.30;99.90;;;;;;5020099;28;19925;-74
2022/08/10 04:21:11;;;;;;;;;;;17.20;99.90;;;;;;5023198;28;19940;-74
2022/08/10 04:23:40;;;;;;;;;;;17.20;99.90;;;;;;5018227;28;19933;-74
2022/08/10 04:26:07;;;;;;;;;;;17.30;99.90;;;;;;5018830;28;20515;-74
2022/08/10 04:28:34;;;;;;;;;;;17.30;99.90;;;;;;5023934;28;19933;-74
2022/08/10 04:31:01;;;;;;;;;;;17.30;99.90;;;;;;5021295;28;19947;-75
2022/08/10 04:33:28;;;;;;;;;;;17.40;99.90;;;;;;5019829;28;20289;-74
2022/08/10 04:35:57;;;;;;;;;;;17.40;99.90;;;;;;5020646;28;19928;-74
2022/08/10 04:38:24;;;;;;;;;;;17.40;99.90;;;;;;5019679;28;19944;-74
2022/08/10 04:40:51;;;;;;;;;;;17.50;99.90;;;;;;5001906;28;20386;-72
2022/08/10 04:43:18;;;;;;;;;;;17.50;99.90;;;;;;5019392;28;19933;-75
2022/08/10 04:45:45;;;;;;;;;;;17.60;99.90;;;;;;5019101;28;19929;-75
2022/08/10 04:48:11;;;;;;;;;;;17.60;99.90;;;;;;5025355;28;20035;-75
2022/08/10 04:50:38;;;;;;;;;;;18.40;99.90;;;;;;5022036;28;19933;-75
2022/08/10 04:53:07;;;;;;;;;;;17.80;99.90;;;;;;5028418;28;19931;-74
2022/08/10 04:55:34;;;;;;;;;;;17.90;99.90;;;;;;5026544;28;19947;-74
2022/08/10 04:58:00;;;;;;;;;;;17.80;99.90;;;;;;5005744;28;20259;-74
2022/08/10 05:00:27;;;;;;;;;;;17.90;99.90;;;;;;5004313;28;19925;-75
2022/08/10 05:02:54;;;;;;;;;;;17.90;99.90;;;;;;4995628;28;20165;-74
2022/08/10 05:05:20;;;;;;;;;;;17.90;99.90;;;;;;5020326;28;19964;-74
2022/08/10 05:07:47;;;;;;;;;;;18.00;99.90;;;;;;5017510;28;19931;-74
2022/08/10 05:10:15;;;;;;;;;;;18.00;99.90;;;;;;4985657;28;20593;-72
2022/08/10 05:12:42;;;;;;;;;;;18.00;99.90;;;;;;5005203;28;19944;-74
2022/08/10 05:15:10;;;;;;;;;;;17.90;99.90;;;;;;4985964;28;20460;-73
2022/08/10 05:17:37;;;;;;;;;;;18.20;99.90;;;;;;4996955;28;20340;-73
2022/08/10 05:20:05;;;;;;;;;;;18.20;99.90;;;;;;5009312;28;19945;-74
2022/08/10 05:22:36;;;;;;;;;;;18.30;99.90;;;;;;4998455;28;19997;-74
2022/08/10 05:25:03;;;;;;;;;;;18.40;99.90;;;;;;5019708;28;20114;-73
2022/08/10 05:27:32;;;;;;;;;;;18.40;99.90;;;;;;5024361;28;19959;-73
2022/08/10 05:29:59;;;;;;;;;;;18.50;99.90;;;;;;5005615;28;19925;-74
2022/08/10 05:32:26;;;;;;;;;;;18.70;99.90;;;;;;5020059;28;20002;-74
2022/08/10 05:34:53;;;;;;;;;;;18.80;99.90;;;;;;5021063;28;19947;-74
2022/08/10 05:37:20;;;;;;;;;;;19.30;99.90;;;;;;5017902;28;19943;-74
2022/08/10 05:39:49;;;;;;;;;;;19.30;99.90;;;;;;5027954;28;19976;-74
2022/08/10 05:42:16;;;;;;;;;;;19.80;99.90;;;;;;5033926;28;19978;-74
2022/08/10 05:44:45;;;;;;;;;;;21.10;99.90;;;;;;5028438;28;19936;-74
2022/08/10 05:47:12;;;;;;;;;;;22.30;99.90;;;;;;5027379;28;19924;-74
2022/08/10 05:49:39;;;;;;;;;;;23.60;99.90;;;;;;5023481;28;20270;-76
2022/08/10 05:52:06;;;;;;;;;;;24.80;99.90;;;;;;5024212;28;19941;-76
2022/08/10 05:54:33;;;;;;;;;;;25.60;99.90;;;;;;5029224;28;19943;-76
2022/08/10 05:57:00;;;;;;;;;;;25.90;99.90;;;;;;5029699;28;19976;-76
2022/08/10 05:59:30;;;;;;;;;;;26.30;99.90;;;;;;5029628;28;19929;-76
2022/08/10 06:01:58;;;;;;;;;;;26.80;99.90;;;;;;5030733;28;19925;-77
2022/08/10 06:04:28;;;;;;;;;;;27.80;99.90;;;;;;5029559;28;20047;-77
2022/08/10 06:06:55;;;;;;;;;;;28.80;99.90;;;;;;5027010;28;19952;-76
2022/08/10 06:09:23;;;;;;;;;;;30.00;99.90;;;;;;5010030;28;19991;-75
2022/08/10 06:11:52;;;;;;;;;;;31.00;99.90;;;;;;5028945;28;19945;-75
2022/08/10 06:17:05;;;;;;;;;;;32.70;99.90;;;;;;5016835;28;19936;-75
2022/08/10 06:19:33;;;;;;;6.60;3.30;;;33.50;99.00;;;;;;5021685;28;20066;-81
2022/08/10 06:22:02;;;;;;;5.03;3.25;;;34.10;96.70;;;;;;5022734;28;20218;-81
2022/08/10 06:24:30;;;;;;;6.03;3.25;;;34.50;94.80;;;;;;5018820;28;20617;-80
2022/08/10 06:26:57;;;;;;;10.48;3.50;;;34.60;91.80;;;;;;5029674;28;20205;-80
2022/08/10 06:29:26;;;;;;;6.65;3.08;;;34.50;88.70;;;;;;5012651;28;20730;-80
2022/08/10 06:31:54;;;;;;;5.82;3.00;;;34.20;88.50;;;;;;5027968;28;20269;-81
2022/08/10 06:34:27;;;;;;;6.07;3.13;;;34.50;88.60;;;;;;5017802;28;20237;-80
2022/08/10 06:36:57;;;;;;;6.07;3.47;;;34.70;87.10;;;;;;5032581;28;20207;-80
2022/08/10 06:39:24;;;;;;;8.15;3.45;;;34.60;84.20;;;;;;5009641;28;20248;-80
2022/08/10 06:41:56;;;;;;;7.43;3.45;;;34.70;84.40;;;;;;5026747;28;20218;-79
2022/08/10 06:44:29;;;;;;;6.32;3.30;;;35.80;84.50;;;;;;5027878;28;20219;-79
2022/08/10 06:46:59;;;;;;;4.57;3.20;;;35.40;83.30;;;;;;5009297;28;20210;-79
2022/08/10 06:49:27;;;;;;;7.43;3.50;;;35.80;81.40;;;;;;5028006;28;20303;-79
2022/08/10 06:51:57;;;;;;;7.25;3.28;;;36.20;80.70;;;;;;5007920;28;20706;-80
2022/08/10 06:54:27;;;;;;;6.00;3.47;;;36.70;76.50;;;;;;5008102;28;20211;-79
2022/08/10 06:56:57;;;;;;;5.90;3.22;;;36.70;76.30;;;;;;5042939;28;20210;-80
2022/08/10 06:59:30;;;;;;;8.32;3.20;;;37.10;75.80;;;;;;5022295;28;20237;-80
2022/08/10 07:02:03;;;;;;;11.55;3.47;;;37.30;73.70;;;;;;5030105;28;20262;-79
2022/08/10 07:04:34;;;;;;;9.75;3.83;;;37.50;71.50;;;;;;5022390;28;20232;-80
2022/08/10 07:07:04;;;;;;;10.02;3.65;;;37.80;71.90;;;;;;5017350;28;20235;-79
2022/08/10 07:09:32;;;;;;;8.95;3.50;;;37.90;70.70;;;;;;5010247;28;20238;-79
2022/08/10 07:12:00;;;;;;;4.78;3.25;;;37.80;68.70;;;;;;5003228;28;20214;-79
2022/08/10 07:14:29;;;;;;;7.22;3.20;;;37.50;68.60;;;;;;5032621;28;20355;-80
2022/08/10 07:16:59;;;;;;;6.00;3.28;;;37.60;67.90;;;;;;5009629;28;20214;-79
2022/08/10 07:19:28;;;;;;;7.50;3.33;;;37.90;68.10;;;;;;5558832;22;20241;-80
2022/08/10 07:21:57;;;;;;;4.63;3.30;;;38.10;65.70;;;;;;5017634;28;20218;-80
2022/08/10 07:24:25;;;;;;;9.35;3.42;;;38.10;65.30;;;;;;5030978;28;20205;-81
2022/08/10 07:26:55;;;;;;;10.93;3.72;;;38.10;65.20;;;;;;5016370;28;20210;-81
2022/08/10 07:29:26;;;;;;;9.15;3.35;;;38.30;65.30;;;;;;5026901;28;20273;-82
2022/08/10 07:31:56;;;;;;;6.47;3.40;;;38.60;64.30;;;;;;5019605;28;20123;-81
2022/08/10 07:34:24;;;;;;;7.28;3.65;;;38.40;61.80;;;;;;5013793;28;20240;-80
2022/08/10 07:36:52;;;;;;;5.85;3.38;;;38.40;62.70;;;;;;5011428;28;20226;-81
2022/08/10 07:39:24;;;;;;;8.25;3.45;;;38.60;62.30;;;;;;5013438;28;20226;-80
2022/08/10 07:41:52;;;;;;;8.88;3.80;;;38.60;60.00;;;;;;5012331;28;20286;-82
2022/08/10 07:44:22;;;;;;;7.45;3.47;;;38.10;60.00;;;;;;5010256;28;20210;-80
2022/08/10 07:46:52;;;;;;;8.00;4.35;;;37.90;61.30;;;;;;5017409;28;20202;-81
2022/08/10 07:49:26;;;;;;;5.53;3.53;;;37.70;59.30;;;;;;5003875;28;20269;-80
2022/08/10 07:51:56;;;;;;;11.82;4.05;;;37.30;59.60;;;;;;5016028;28;20472;-81
2022/08/10 07:54:27;;;;;;;10.85;4.43;;;36.90;59.60;;;;;;5012118;28;20232;-80
2022/08/10 07:56:59;;;;;;;8.98;3.70;;;36.50;59.80;;;;;;5014067;28;20271;-79
2022/08/10 07:59:36;;;;;;;5.43;3.30;;;36.30;60.50;;;;;;5038128;28;20233;-79
2022/08/10 08:02:06;;;;;;;8.52;4.20;;;36.30;61.70;;;;;;5027591;28;20194;-79
2022/08/10 08:04:33;;;;;;;8.68;3.60;;;36.60;60.40;;;;;;5028701;28;20214;-79
2022/08/10 08:07:03;;;;;;;8.68;4.30;;;36.80;60.20;;;;;;5023200;28;20218;-79
2022/08/10 08:09:33;;;;;;;8.25;3.85;;;36.80;60.00;;;;;;5017539;28;20234;-80
2022/08/10 08:12:00;;;;;;;10.63;3.88;;;37.00;59.30;;;;;;5013938;28;20238;-79
2022/08/10 08:14:28;;;;;;;16.40;4.70;;;37.10;59.50;;;;;;5024987;23;20722;-76
2022/08/10 08:16:56;;;;;;;7.90;4.40;;;37.20;59.90;;;;;;4993808;28;20210;-75
2022/08/10 08:19:24;;;;;;;13.18;4.20;;;37.40;59.70;;;;;;4993846;28;20240;-75
2022/08/10 08:21:52;;;;;;;8.27;4.50;;;37.50;58.40;;;;;;5002714;28;20216;-76
2022/08/10 08:24:20;;;;;;;12.48;4.13;;;37.50;58.50;;;;;;5008749;28;20623;-77
2022/08/10 08:26:50;;;;;;;11.35;4.60;;;37.60;58.40;;;;;;4998455;28;20210;-76
2022/08/10 08:29:18;;;;;;;17.75;4.30;;;37.70;57.80;;;;;;4997670;28;20214;-76
2022/08/10 08:31:46;;;;;;;11.65;5.05;;;37.50;56.70;;;;;;4999381;28;20288;-76
2022/08/10 08:34:15;;;;;;;9.80;4.70;;;37.20;57.60;;;;;;4997989;28;20739;-77
2022/08/10 08:36:42;;;;;;;8.07;3.97;;;37.30;57.60;;;;;;5003417;28;20317;-75
2022/08/10 08:39:11;;;;;;;10.00;4.15;;;37.30;57.20;;;;;;5006494;28;20726;-75
2022/08/10 08:41:56;;;;;;;10.68;4.75;;;37.10;56.10;;;;;;5006395;28;20214;-75
2022/08/10 08:44:31;;;;;;;12.82;4.45;;;36.70;57.20;;;;;;5005173;28;20264;-75
2022/08/10 08:47:24;;;;;;;13.52;4.60;;;36.60;56.70;;;;;;4994712;28;20240;-75
2022/08/10 08:50:13;;;;;;;12.23;4.68;;;36.30;57.10;;;;;;4978568;28;20214;-76
2022/08/10 08:52:53;;;;;;;9.15;4.63;;;36.00;56.80;;;;;;4987286;28;21909;-77
2022/08/10 08:55:25;;;;;;;;;;;35.60;57.10;;;;;;4989333;28;20316;-77
2022/08/10 08:57:56;;;;;;;;;;;35.30;57.70;;;;;;4992954;28;19933;-75
2022/08/10 09:00:28;;;;;;;;;;;35.10;57.60;;;;;;4988998;28;19922;-75
2022/08/10 09:03:10;;;;;;;;;;;34.80;57.10;;;;;;4992967;28;19933;-77
2022/08/10 09:05:40;;;;;;;;;;;34.80;57.50;;;;;;4985080;28;19929;-75
2022/08/10 09:08:25;;;;;;;;;;;34.80;58.00;;;;;;4984738;28;19933;-75
2022/08/10 09:10:53;;;;;;;;;;;34.60;57.60;;;;;;4984082;28;19936;-75
2022/08/10 09:13:28;;;;;;;;;;;34.50;58.10;;;;;;4984966;28;19948;-76
2022/08/10 09:16:00;;;;;;;;;;;34.40;57.50;;;;;;4988127;28;20077;-75
2022/08/10 09:18:31;;;;;;;;;;;34.10;58.10;;;;;;4989113;28;20349;-75
2022/08/10 09:21:00;;;;;;;;;;;33.90;57.30;;;;;;4994771;28;19929;-76
2022/08/10 09:23:31;;;;;;;;;;;33.60;58.00;;;;;;5002513;28;19930;-75
2022/08/10 09:26:01;;;;;;;;;;;33.60;58.50;;;;;;4995864;28;19929;-77
2022/08/10 09:28:35;;;;;;;;;;;33.50;57.20;;;;;;4991444;28;19925;-75
2022/08/10 09:31:04;;;;;;;;;;;33.10;57.70;;;;;;4994891;28;19929;-75
2022/08/10 09:33:37;;;;;;;;;;;32.80;58.90;;;;;;4987282;28;19936;-75
2022/08/10 09:36:11;;;;;;;;;;;32.80;59.10;;;;;;4990935;28;20028;-76
2022/08/10 09:38:46;;;;;;;;;;;32.90;58.80;;;;;;4992868;28;19925;-75
2022/08/10 09:41:15;;;;;;;;;;;32.70;58.90;;;;;;4995375;28;19996;-76
2022/08/10 09:43:49;;;;;;;;;;;32.40;59.50;;;;;;4991546;28;19925;-75
2022/08/10 09:46:22;;;;;;;;;;;32.30;58.90;;;;;;4990989;28;20041;-75
2022/08/10 09:48:54;;;;;;;;;;;32.00;59.10;;;;;;4990143;28;19983;-75
2022/08/10 09:51:26;;;;;;;;;;;31.90;58.00;;;;;;4991573;28;19980;-76
2022/08/10 09:53:57;;;;;;;;;;;31.30;57.70;;;;;;4991542;28;19933;-76
2022/08/10 09:56:28;;;;;;;;;;;31.20;58.90;;;;;;5007502;28;19929;-74
2022/08/10 09:59:02;;;;;;;;;;;30.70;59.50;;;;;;5011564;28;19925;-75
2022/08/10 10:01:32;;;;;;;;;;;30.30;60.00;;;;;;5004324;28;20457;-76
2022/08/10 10:04:04;;;;;;;;;;;30.00;60.60;;;;;;4983654;28;19933;-75
2022/08/10 10:06:36;;;;;;;;;;;29.60;61.40;;;;;;5007961;28;19925;-75
2022/08/10 10:09:07;;;;;;;;;;;29.40;61.90;;;;;;5010641;28;19921;-75
2022/08/10 10:11:36;;;;;;;;;;;29.20;62.50;;;;;;5011064;28;19929;-75
2022/08/10 10:14:12;;;;;;;;;;;29.00;62.20;;;;;;5019814;28;20076;-75
2022/08/10 10:16:43;;;;;;;;;;;29.00;63.70;;;;;;4992760;28;20286;-75
2022/08/10 10:19:24;;;;;;;;;;;28.90;63.90;;;;;;5010328;28;20125;-76
2022/08/10 10:21:56;;;;;;;;;;;29.00;64.40;;;;;;4992512;28;19979;-76
2022/08/10 10:24:27;;;;;;;;;;;29.00;63.40;;;;;;4991178;28;20424;-76
2022/08/10 10:26:56;;;;;;;;;;;28.90;64.30;;;;;;4990692;28;19929;-78
2022/08/10 10:29:34;;;;;;;;;;;28.90;64.40;;;;;;4984510;28;20007;-77
2022/08/10 10:32:03;;;;;;;;;;;28.90;64.80;;;;;;4985870;28;19935;-77
2022/08/10 10:34:34;;;;;;;;;;;28.90;64.80;;;;;;4984419;28;19929;-78
2022/08/10 10:37:05;;;;;;;;;;;28.90;63.80;;;;;;4979748;28;19929;-77
2022/08/10 10:39:33;;;;;;;;;;;28.90;63.20;;;;;;4981022;28;20294;-75
2022/08/10 10:42:05;;;;;;;;;;;28.90;63.30;;;;;;4988113;28;20679;-77
2022/08/10 10:44:37;;;;;;;;;;;28.90;63.40;;;;;;4966780;28;20232;-76
2022/08/10 10:47:11;;;;;;;;;;;29.00;63.60;;;;;;4965259;28;19941;-76
2022/08/10 10:49:43;;;;;;;;;;;29.00;62.90;;;;;;4986039;28;19976;-76
2022/08/10 10:52:15;;;;;;;;;;;29.00;62.60;;;;;;5000016;28;20391;-78
2022/08/10 10:54:47;;;;;;;;;;;29.10;62.30;;;;;;4978938;28;20298;-76
2022/08/10 10:57:19;;;;;;;;;;;29.20;62.80;;;;;;4994804;28;19937;-77
2022/08/10 10:59:55;;;;;;;;;;;29.20;63.20;;;;;;4987319;28;19932;-77
2022/08/10 11:02:38;;;;;;;;;;;29.30;62.20;;;;;;4984035;28;19937;-76
2022/08/10 11:05:09;;;;;;;;;;;29.40;62.80;;;;;;4984625;28;19930;-76
2022/08/10 11:07:39;;;;;;;;;;;29.40;62.60;;;;;;4992145;28;19932;-76
2022/08/10 11:10:09;;;;;;;;;;;29.50;62.30;;;;;;4989209;28;19929;-75
2022/08/10 11:12:38;;;;;;;;;;;29.50;62.30;;;;;;4994205;28;19934;-76
2022/08/10 11:15:09;;;;;;;;;;;29.60;62.70;;;;;;5000021;28;20047;-76
2022/08/10 11:17:40;;;;;;;;;;;29.60;62.50;;;;;;5006355;28;19936;-75
2022/08/10 11:20:11;;;;;;;;;;;29.80;63.10;;;;;;4998773;28;19952;-75
2022/08/10 11:22:43;;;;;;;;;;;30.00;62.30;;;;;;4987544;28;19933;-76
2022/08/10 11:25:12;;;;;;;;;;;30.10;61.00;;;;;;4995396;28;20437;-76
2022/08/10 11:27:47;;;;;;;;;;;30.10;60.50;;;;;;4995322;28;19925;-75
2022/08/10 11:30:18;;;;;;;;;;;30.20;60.80;;;;;;5008247;28;19925;-76
2022/08/10 11:32:53;;;;;;;;;;;30.20;61.10;;;;;;4990344;28;20389;-76
2022/08/10 11:35:22;;;;;;;;;;;30.40;60.80;;;;;;5005782;28;20035;-75
2022/08/10 11:37:52;;;;;;;;;;;30.40;59.60;;;;;;4999116;28;19926;-76
2022/08/10 11:40:22;;;;;;;;;;;30.30;59.60;;;;;;4999284;28;19932;-75
2022/08/10 11:42:54;;;;;;;;;;;30.50;59.60;;;;;;5003770;28;19944;-75
2022/08/10 11:45:25;;;;;;;;;;;30.50;60.10;;;;;;5001996;28;20326;-76
2022/08/10 11:47:53;;;;;;;;;;;30.70;60.50;;;;;;5000856;28;19936;-76
2022/08/10 11:50:24;;;;;;;;;;;30.90;60.60;;;;;;4982552;28;19929;-76
2022/08/10 11:53:01;;;;;;;;;;;31.00;58.70;;;;;;5004198;28;19929;-76
2022/08/10 11:55:29;;;;;;;;;;;31.00;59.20;;;;;;4997455;28;20256;-77
2022/08/10 11:57:58;;;;;;;;;;;31.00;58.80;;;;;;5000447;28;20326;-76
2022/08/10 12:00:29;;;;;;;;;;;31.00;58.00;;;;;;4984082;28;19929;-76
2022/08/10 12:02:57;;;;;;;;;;;31.10;58.40;;;;;;5002519;28;19929;-73
2022/08/10 12:05:26;;;;;;;;;;;31.10;58.40;;;;;;5002773;28;19945;-74
2022/08/10 12:07:54;;;;;;;;;;;31.20;58.10;;;;;;4999252;28;20413;-76
2022/08/10 12:10:22;;;;;;;;;;;31.40;58.70;;;;;;5004195;28;20378;-73
2022/08/10 12:12:52;;;;;;;;;;;31.70;57.70;;;;;;5003146;28;19939;-74
2022/08/10 12:15:23;;;;;;;;;;;31.70;57.60;;;;;;4996858;28;20332;-73
2022/08/10 12:17:53;;;;;;;;;;;32.00;57.20;;;;;;5000946;28;19925;-74
2022/08/10 12:20:24;;;;;;;;;;;32.10;56.70;;;;;;4996140;28;20326;-73
2022/08/10 12:22:55;;;;;;;;;;;32.10;56.50;;;;;;4995553;28;19952;-73
2022/08/10 12:25:27;;;;;;;;;;;32.10;56.00;;;;;;4992727;28;20356;-73
2022/08/10 12:27:56;;;;;;;;;;;31.90;55.70;;;;;;4999908;28;20330;-74
2022/08/10 12:30:29;;;;;;;;;;;31.90;55.90;;;;;;4994844;28;19929;-74
2022/08/10 12:33:00;;;;;;;;;;;31.80;56.20;;;;;;4992272;28;19929;-73
2022/08/10 12:35:32;;;;;;;;;;;30.00;55.30;;;;;;4993042;28;19993;-73
2022/08/10 12:38:02;;;;;;;;;;;31.90;56.20;;;;;;4994540;28;19941;-73
2022/08/10 12:40:31;;;;;;;;;;;32.00;56.00;;;;;;4992856;28;19930;-73
2022/08/10 12:43:01;;;;;;;;;;;32.20;56.00;;;;;;4991751;28;20432;-73
2022/08/10 12:45:32;;;;;;;;;;;32.20;55.80;;;;;;4996157;28;19967;-73
2022/08/10 12:48:03;;;;;;;;;;;32.20;55.50;;;;;;4990255;28;20327;-73
2022/08/10 12:50:33;;;;;;;;;;;32.40;55.80;;;;;;4992709;28;19949;-73
2022/08/10 12:53:03;;;;;;;;;;;32.30;55.30;;;;;;4996725;28;20464;-73
2022/08/10 12:55:31;;;;;;;;;;;32.30;55.10;;;;;;4998786;28;19933;-72
2022/08/10 12:57:58;;;;;;;;;;;32.40;54.30;;;;;;4995280;28;19929;-72
2022/08/10 13:00:29;;;;;;;;;;;32.40;54.00;;;;;;4996305;28;20686;-73
2022/08/10 13:02:57;;;;;;;;;;;32.30;54.20;;;;;;5010816;28;19930;-72
2022/08/10 13:05:25;;;;;;;;;;;32.30;54.00;;;;;;5013518;28;20701;-73
2022/08/10 13:09:07;;;;;;;;;;;32.30;53.80;;;;;;5015463;28;19973;-75
2022/08/10 13:10:44;;;;;;;;;;;32.20;54.00;;;;;;5004168;28;19937;-75
2022/08/10 13:13:14;;;;;;;;;;;32.10;54.20;;;;;;5012638;28;19925;-76
2022/08/10 13:15:44;;;;;;;;;;;32.20;53.90;;;;;;5020777;28;19925;-75
2022/08/10 13:18:12;;;;;;;;;;;32.20;54.20;;;;;;5010306;28;19936;-75
2022/08/10 13:20:43;;;;;;;;;;;32.30;54.50;;;;;;5011852;28;19930;-76
2022/08/10 13:23:13;;;;;;;;;;;32.40;54.00;;;;;;5005894;28;19929;-73
2022/08/10 13:25:44;;;;;;;;;;;32.60;54.20;;;;;;5021845;28;19930;-73
2022/08/10 13:28:15;;;;;;;;;;;32.60;52.60;;;;;;5023151;28;19925;-72
2022/08/10 13:30:49;;;;;;;;;;;32.60;53.10;;;;;;5019831;28;19930;-75
2022/08/10 13:33:18;;;;;;;;;;;32.40;51.90;;;;;;5012079;28;19940;-73
2022/08/10 13:35:47;;;;;;;;;;;32.40;52.10;;;;;;5021209;28;19952;-75
2022/08/10 13:38:22;;;;;;;;;;;32.40;53.10;;;;;;5027892;28;19929;-76
2022/08/10 13:41:08;;;;;;;;;;;32.60;52.70;;;;;;5034636;28;19917;-76
2022/08/10 13:43:59;;;;;;;;;;;32.80;52.80;;;;;;5012207;28;19925;-71
2022/08/10 13:46:48;;;;;;;;;;;32.90;53.00;;;;;;5035179;28;19918;-75
2022/08/10 13:49:20;;;;;;;;;;;32.90;52.30;;;;;;5034187;28;19945;-76
2022/08/10 13:51:52;;;;;;;;;;;32.80;52.20;;;;;;5014598;28;19989;-76
2022/08/10 13:54:20;;;;;;;;;;;32.90;52.20;;;;;;5005086;28;19948;-76
2022/08/10 13:56:49;;;;;;;;;;;32.90;52.20;;;;;;5012368;28;19939;-73
2022/08/10 13:59:17;;;;;;;;;;;32.80;51.30;;;;;;5018196;28;19913;-72
2022/08/10 14:01:47;;;;;;;;;;;32.80;50.70;;;;;;5023505;28;19976;-73
2022/08/10 14:04:15;;;;;;;;;;;32.70;50.80;;;;;;5019857;28;21051;-76
2022/08/10 14:06:50;;;;;;;;;;;32.60;51.20;;;;;;5016001;28;20017;-73
2022/08/10 14:09:24;;;;;;;;;;;32.70;51.50;;;;;;5000472;28;19936;-76
2022/08/10 14:11:53;;;;;;;;;;;32.80;51.50;;;;;;5000540;28;19988;-75
2022/08/10 14:14:21;;;;;;;;;;;32.80;51.20;;;;;;5034619;22;19941;-79
2022/08/10 14:16:48;;;;;;;;;;;32.80;51.10;;;;;;5013887;28;19937;-79
2022/08/10 14:19:16;;;;;;;;;;;32.80;50.80;;;;;;5009404;28;19934;-79